sensor_id;sensor_type;location;lat;lon;timestamp;temperature;humidity
23991;DHT22;12205;50.600;4.608;2022-07-09T00:00:42;17.60;99.90
23991;DHT22;12205;50.600;4.608;2022-07-09T00:03:09;17.50;99.90
23991;DHT22;12205;50.600;4.608;2022-07-09T00:05:37;17.50;99.90
23991;DHT22;12205;50.600;4.608;2022-07-09T00:08:04;17.40;99.90
23991;DHT22;12205;50.600;4.608;2022-07-09T00:10:32;17.40;99.90
23991;DHT22;12205;50.600;4.608;2022-07-09T00:13:01;17.40;99.90
23991;DHT22;12205;50.600;4.608;2022-07-09T00:15:28;17.40;99.90
23991;DHT22;12205;50.600;4.608;2022-07-09T00:17:55;17.40;99.90
23991;DHT22;12205;50.600;4.608;2022-07-09T00:20:23;17.40;99.90
23991;DHT22;12205;50.600;4.608;2022-07-09T00:22:50;17.30;99.90
23991;DHT22;12205;50.600;4.608;2022-07-09T00:25:17;17.30;99.90
23991;DHT22;12205;50.600;4.608;2022-07-09T00:27:44;17.30;99.90
23991;DHT22;12205;50.600;4.608;2022-07-09T00:30:13;17.20;99.90
23991;DHT22;12205;50.600;4.608;2022-07-09T00:32:40;17.20;99.90
23991;DHT22;12205;50.600;4.608;2022-07-09T00:35:08;17.20;99.90
23991;DHT22;12205;50.600;4.608;2022-07-09T00:37:35;17.20;99.90
23991;DHT22;12205;50.600;4.608;2022-07-09T00:40:02;17.10;99.90
23991;DHT22;12205;50.600;4.608;2022-07-09T00:42:30;17.10;99.90
23991;DHT22;12205;50.600;4.608;2022-07-09T00:44:57;17.00;99.90
23991;DHT22;12205;50.600;4.608;2022-07-09T00:47:25;17.00;99.90
23991;DHT22;12205;50.600;4.608;2022-07-09T00:49:53;17.00;99.90
23991;DHT22;12205;50.600;4.608;2022-07-09T00:52:21;16.90;99.90
23991;DHT22;12205;50.600;4.608;2022-07-09T00:54:49;16.90;99.90
23991;DHT22;12205;50.600;4.608;2022-07-09T00:57:17;16.90;99.90
23991;DHT22;12205;50.600;4.608;2022-07-09T00:59:45;16.90;99.90
23991;DHT22;12205;50.600;4.608;2022-07-09T01:02:13;16.80;99.90
23991;DHT22;12205;50.600;4.608;2022-07-09T01:04:41;16.80;99.90
23991;DHT22;12205;50.600;4.608;2022-07-09T01:07:08;16.80;99.90
23991;DHT22;12205;50.600;4.608;2022-07-09T01:09:35;16.70;99.90
23991;DHT22;12205;50.600;4.608;2022-07-09T01:12:03;16.60;99.90
23991;DHT22;12205;50.600;4.608;2022-07-09T01:14:31;16.60;99.90
23991;DHT22;12205;50.600;4.608;2022-07-09T01:16:59;16.60;99.90
23991;DHT22;12205;50.600;4.608;2022-07-09T01:19:27;16.50;99.90
23991;DHT22;12205;50.600;4.608;2022-07-09T01:21:57;16.50;99.90
23991;DHT22;12205;50.600;4.608;2022-07-09T01:24:26;16.50;99.90
23991;DHT22;12205;50.600;4.608;2022-07-09T01:26:53;16.50;99.90
23991;DHT22;12205;50.600;4.608;2022-07-09T01:29:21;16.50;99.90
23991;DHT22;12205;50.600;4.608;2022-07-09T01:31:49;16.50;99.90
23991;DHT22;12205;50.600;4.608;2022-07-09T01:34:16;16.40;99.90
23991;DHT22;12205;50.600;4.608;2022-07-09T01:36:43;16.30;99.90
23991;DHT22;12205;50.600;4.608;2022-07-09T01:39:12;16.30;99.90
23991;DHT22;12205;50.600;4.608;2022-07-09T01:41:39;16.30;99.90
23991;DHT22;12205;50.600;4.608;2022-07-09T01:44:07;16.30;99.90
23991;DHT22;12205;50.600;4.608;2022-07-09T01:46:34;16.30;99.90
23991;DHT22;12205;50.600;4.608;2022-07-09T01:49:01;16.20;99.90
23991;DHT22;12205;50.600;4.608;2022-07-09T01:51:29;16.20;99.90
23991;DHT22;12205;50.600;4.608;2022-07-09T01:53:56;16.20;99.90
23991;DHT22;12205;50.600;4.608;2022-07-09T01:56:24;16.20;99.90
23991;DHT22;12205;50.600;4.608;2022-07-09T01:58:51;16.20;99.90
23991;DHT22;12205;50.600;4.608;2022-07-09T02:01:18;16.20;99.90
23991;DHT22;12205;50.600;4.608;2022-07-09T02:03:46;16.10;99.90
23991;DHT22;12205;50.600;4.608;2022-07-09T02:06:13;16.10;99.90
23991;DHT22;12205;50.600;4.608;2022-07-09T02:08:40;16.00;99.90
23991;DHT22;12205;50.600;4.608;2022-07-09T02:11:07;16.00;99.90
23991;DHT22;12205;50.600;4.608;2022-07-09T02:13:36;16.00;99.90
23991;DHT22;12205;50.600;4.608;2022-07-09T02:16:04;16.00;99.90
23991;DHT22;12205;50.600;4.608;2022-07-09T02:18:32;16.00;99.90
23991;DHT22;12205;50.600;4.608;2022-07-09T02:20:59;15.90;99.90
23991;DHT22;12205;50.600;4.608;2022-07-09T02:23:27;15.90;99.90
23991;DHT22;12205;50.600;4.608;2022-07-09T02:25:54;16.00;99.90
23991;DHT22;12205;50.600;4.608;2022-07-09T02:28:21;16.00;99.90
23991;DHT22;12205;50.600;4.608;2022-07-09T02:30:50;16.00;99.90
23991;DHT22;12205;50.600;4.608;2022-07-09T02:33:17;16.00;99.90
23991;DHT22;12205;50.600;4.608;2022-07-09T02:35:44;15.90;99.90
23991;DHT22;12205;50.600;4.608;2022-07-09T02:38:11;15.90;99.90
23991;DHT22;12205;50.600;4.608;2022-07-09T02:40:38;15.90;99.90
23991;DHT22;12205;50.600;4.608;2022-07-09T02:43:05;16.00;99.90
23991;DHT22;12205;50.600;4.608;2022-07-09T02:45:32;16.00;99.90
23991;DHT22;12205;50.600;4.608;2022-07-09T02:48:01;16.00;99.90
23991;DHT22;12205;50.600;4.608;2022-07-09T02:50:28;16.00;99.90
23991;DHT22;12205;50.600;4.608;2022-07-09T02:52:55;16.00;99.90
23991;DHT22;12205;50.600;4.608;2022-07-09T02:55:22;16.00;99.90
23991;DHT22;12205;50.600;4.608;2022-07-09T02:57:49;16.00;99.90
23991;DHT22;12205;50.600;4.608;2022-07-09T03:00:16;16.00;99.90
23991;DHT22;12205;50.600;4.608;2022-07-09T03:02:43;16.00;99.90
23991;DHT22;12205;50.600;4.608;2022-07-09T03:05:12;16.00;99.90
23991;DHT22;12205;50.600;4.608;2022-07-09T03:07:39;16.10;99.90
23991;DHT22;12205;50.600;4.608;2022-07-09T03:10:06;16.10;99.90
23991;DHT22;12205;50.600;4.608;2022-07-09T03:12:33;16.10;99.90
23991;DHT22;12205;50.600;4.608;2022-07-09T03:15:01;16.10;99.90
23991;DHT22;12205;50.600;4.608;2022-07-09T03:17:28;16.20;99.90
23991;DHT22;12205;50.600;4.608;2022-07-09T03:19:55;16.20;99.90
23991;DHT22;12205;50.600;4.608;2022-07-09T03:22:23;16.20;99.90
23991;DHT22;12205;50.600;4.608;2022-07-09T03:24:50;16.20;99.90
23991;DHT22;12205;50.600;4.608;2022-07-09T03:27:17;16.20;99.90
23991;DHT22;12205;50.600;4.608;2022-07-09T03:29:45;16.20;99.90
23991;DHT22;12205;50.600;4.608;2022-07-09T03:32:12;16.20;99.90
23991;DHT22;12205;50.600;4.608;2022-07-09T03:34:39;16.20;99.90
23991;DHT22;12205;50.600;4.608;2022-07-09T03:37:06;16.20;99.90
23991;DHT22;12205;50.600;4.608;2022-07-09T03:39:35;16.10;99.90
23991;DHT22;12205;50.600;4.608;2022-07-09T03:42:02;16.10;99.90
23991;DHT22;12205;50.600;4.608;2022-07-09T03:44:32;16.10;99.90
23991;DHT22;12205;50.600;4.608;2022-07-09T03:46:59;16.00;99.90
23991;DHT22;12205;50.600;4.608;2022-07-09T03:49:26;16.00;99.90
23991;DHT22;12205;50.600;4.608;2022-07-09T03:51:53;16.00;99.90
23991;DHT22;12205;50.600;4.608;2022-07-09T03:54:20;16.00;99.90
23991;DHT22;12205;50.600;4.608;2022-07-09T03:56:49;16.10;99.90
23991;DHT22;12205;50.600;4.608;2022-07-09T03:59:16;16.10;99.90
23991;DHT22;12205;50.600;4.608;2022-07-09T04:01:44;16.10;99.90
23991;DHT22;12205;50.600;4.608;2022-07-09T04:04:11;16.10;99.90
23991;DHT22;12205;50.600;4.608;2022-07-09T04:06:38;16.10;99.90
23991;DHT22;12205;50.600;4.608;2022-07-09T04:09:06;16.10;99.90
23991;DHT22;12205;50.600;4.608;2022-07-09T04:11:33;16.20;99.90
23991;DHT22;12205;50.600;4.608;2022-07-09T04:14:02;16.20;99.90
23991;DHT22;12205;50.600;4.608;2022-07-09T04:16:29;16.20;99.90
23991;DHT22;12205;50.600;4.608;2022-07-09T04:18:57;16.20;99.90
23991;DHT22;12205;50.600;4.608;2022-07-09T04:21:25;16.20;99.90
23991;DHT22;12205;50.600;4.608;2022-07-09T04:23:52;16.20;99.90
23991;DHT22;12205;50.600;4.608;2022-07-09T04:26:19;16.20;99.90
23991;DHT22;12205;50.600;4.608;2022-07-09T04:28:46;16.30;99.90
23991;DHT22;12205;50.600;4.608;2022-07-09T04:31:15;16.30;99.90
23991;DHT22;12205;50.600;4.608;2022-07-09T04:33:45;16.40;99.90
23991;DHT22;12205;50.600;4.608;2022-07-09T04:36:12;16.40;99.90
23991;DHT22;12205;50.600;4.608;2022-07-09T04:38:39;16.40;99.90
23991;DHT22;12205;50.600;4.608;2022-07-09T04:41:06;16.50;99.90
23991;DHT22;12205;50.600;4.608;2022-07-09T04:43:33;16.50;99.90
23991;DHT22;12205;50.600;4.608;2022-07-09T04:46:00;16.60;99.90
23991;DHT22;12205;50.600;4.608;2022-07-09T04:48:29;16.60;99.90
23991;DHT22;12205;50.600;4.608;2022-07-09T04:50:56;16.60;99.90
23991;DHT22;12205;50.600;4.608;2022-07-09T04:53:24;16.60;99.90
23991;DHT22;12205;50.600;4.608;2022-07-09T04:55:51;16.60;99.90
23991;DHT22;12205;50.600;4.608;2022-07-09T04:58:18;16.70;99.90
23991;DHT22;12205;50.600;4.608;2022-07-09T05:00:52;16.70;99.90
23991;DHT22;12205;50.600;4.608;2022-07-09T05:03:19;16.70;99.90
23991;DHT22;12205;50.600;4.608;2022-07-09T05:05:48;16.80;99.90
23991;DHT22;12205;50.600;4.608;2022-07-09T05:08:15;16.80;99.90
23991;DHT22;12205;50.600;4.608;2022-07-09T05:10:42;16.90;99.90
23991;DHT22;12205;50.600;4.608;2022-07-09T05:13:09;16.90;99.90
23991;DHT22;12205;50.600;4.608;2022-07-09T05:15:36;17.00;99.90
23991;DHT22;12205;50.600;4.608;2022-07-09T05:18:03;17.00;99.90
23991;DHT22;12205;50.600;4.608;2022-07-09T05:20:30;17.00;99.90
23991;DHT22;12205;50.600;4.608;2022-07-09T05:22:59;17.10;99.90
23991;DHT22;12205;50.600;4.608;2022-07-09T05:25:26;17.10;99.90
23991;DHT22;12205;50.600;4.608;2022-07-09T05:27:53;17.20;99.90
23991;DHT22;12205;50.600;4.608;2022-07-09T05:30:20;17.30;99.90
23991;DHT22;12205;50.600;4.608;2022-07-09T05:32:47;17.40;99.90
23991;DHT22;12205;50.600;4.608;2022-07-09T05:35:14;17.50;99.90
23991;DHT22;12205;50.600;4.608;2022-07-09T05:37:43;17.60;99.90
23991;DHT22;12205;50.600;4.608;2022-07-09T05:40:12;17.70;99.90
23991;DHT22;12205;50.600;4.608;2022-07-09T05:42:39;17.80;99.90
23991;DHT22;12205;50.600;4.608;2022-07-09T05:45:08;17.90;99.90
23991;DHT22;12205;50.600;4.608;2022-07-09T05:47:35;18.00;99.90
23991;DHT22;12205;50.600;4.608;2022-07-09T05:50:03;18.00;99.90
23991;DHT22;12205;50.600;4.608;2022-07-09T05:52:30;18.10;99.90
23991;DHT22;12205;50.600;4.608;2022-07-09T05:54:57;18.20;99.90
23991;DHT22;12205;50.600;4.608;2022-07-09T05:57:26;18.20;99.90
23991;DHT22;12205;50.600;4.608;2022-07-09T05:59:53;18.30;99.90
23991;DHT22;12205;50.600;4.608;2022-07-09T06:02:20;18.30;99.90
23991;DHT22;12205;50.600;4.608;2022-07-09T06:04:47;18.40;99.90
23991;DHT22;12205;50.600;4.608;2022-07-09T06:07:14;18.50;99.90
23991;DHT22;12205;50.600;4.608;2022-07-09T06:09:41;18.50;99.90
23991;DHT22;12205;50.600;4.608;2022-07-09T06:12:09;18.60;99.90
23991;DHT22;12205;50.600;4.608;2022-07-09T06:14:37;18.60;99.90
23991;DHT22;12205;50.600;4.608;2022-07-09T06:17:05;18.60;99.90
23991;DHT22;12205;50.600;4.608;2022-07-09T06:19:33;18.50;99.90
23991;DHT22;12205;50.600;4.608;2022-07-09T06:22:00;18.60;99.90
23991;DHT22;12205;50.600;4.608;2022-07-09T06:24:27;18.70;99.90
23991;DHT22;12205;50.600;4.608;2022-07-09T06:26:55;18.80;99.90
23991;DHT22;12205;50.600;4.608;2022-07-09T06:29:22;18.80;99.90
23991;DHT22;12205;50.600;4.608;2022-07-09T06:31:51;18.90;99.90
23991;DHT22;12205;50.600;4.608;2022-07-09T06:34:18;18.90;99.90
23991;DHT22;12205;50.600;4.608;2022-07-09T06:36:45;19.00;99.90
23991;DHT22;12205;50.600;4.608;2022-07-09T06:39:12;19.10;99.90
23991;DHT22;12205;50.600;4.608;2022-07-09T06:42:03;19.10;99.90
23991;DHT22;12205;50.600;4.608;2022-07-09T06:44:32;19.20;99.90
23991;DHT22;12205;50.600;4.608;2022-07-09T06:47:01;19.30;99.90
23991;DHT22;12205;50.600;4.608;2022-07-09T06:49:28;19.40;99.90
23991;DHT22;12205;50.600;4.608;2022-07-09T06:51:56;19.40;99.90
23991;DHT22;12205;50.600;4.608;2022-07-09T06:54:23;19.50;99.90
23991;DHT22;12205;50.600;4.608;2022-07-09T06:56:51;19.60;99.90
23991;DHT22;12205;50.600;4.608;2022-07-09T06:59:18;19.60;99.90
23991;DHT22;12205;50.600;4.608;2022-07-09T07:01:47;19.70;99.90
23991;DHT22;12205;50.600;4.608;2022-07-09T07:04:16;19.80;99.90
23991;DHT22;12205;50.600;4.608;2022-07-09T07:06:45;19.90;99.90
23991;DHT22;12205;50.600;4.608;2022-07-09T07:09:14;19.90;99.90
23991;DHT22;12205;50.600;4.608;2022-07-09T07:11:44;20.00;99.90
23991;DHT22;12205;50.600;4.608;2022-07-09T07:14:11;20.00;99.90
23991;DHT22;12205;50.600;4.608;2022-07-09T07:16:38;20.10;99.90
23991;DHT22;12205;50.600;4.608;2022-07-09T07:19:05;20.30;99.90
23991;DHT22;12205;50.600;4.608;2022-07-09T07:21:34;20.30;99.90
23991;DHT22;12205;50.600;4.608;2022-07-09T07:24:01;20.50;99.90
23991;DHT22;12205;50.600;4.608;2022-07-09T07:26:28;20.50;99.90
23991;DHT22;12205;50.600;4.608;2022-07-09T07:28:55;20.60;99.90
23991;DHT22;12205;50.600;4.608;2022-07-09T07:31:23;20.70;99.90
23991;DHT22;12205;50.600;4.608;2022-07-09T07:33:50;20.80;99.90
23991;DHT22;12205;50.600;4.608;2022-07-09T07:36:18;21.00;99.90
23991;DHT22;12205;50.600;4.608;2022-07-09T07:38:46;21.00;99.90
23991;DHT22;12205;50.600;4.608;2022-07-09T07:41:16;21.10;99.90
23991;DHT22;12205;50.600;4.608;2022-07-09T07:43:44;21.30;99.90
23991;DHT22;12205;50.600;4.608;2022-07-09T07:46:12;21.40;99.90
23991;DHT22;12205;50.600;4.608;2022-07-09T07:48:39;21.50;99.90
23991;DHT22;12205;50.600;4.608;2022-07-09T07:51:08;21.60;99.90
23991;DHT22;12205;50.600;4.608;2022-07-09T07:53:35;21.70;99.90
23991;DHT22;12205;50.600;4.608;2022-07-09T07:56:06;21.80;99.90
23991;DHT22;12205;50.600;4.608;2022-07-09T07:58:34;21.90;99.90
23991;DHT22;12205;50.600;4.608;2022-07-09T08:01:02;22.00;99.90
23991;DHT22;12205;50.600;4.608;2022-07-09T08:03:29;22.10;99.90
23991;DHT22;12205;50.600;4.608;2022-07-09T08:05:56;22.20;99.90
23991;DHT22;12205;50.600;4.608;2022-07-09T08:08:23;22.40;99.90
23991;DHT22;12205;50.600;4.608;2022-07-09T08:10:51;22.50;99.90
23991;DHT22;12205;50.600;4.608;2022-07-09T08:13:19;22.60;99.90
23991;DHT22;12205;50.600;4.608;2022-07-09T08:15:46;22.60;99.90
23991;DHT22;12205;50.600;4.608;2022-07-09T08:18:14;22.60;99.90
23991;DHT22;12205;50.600;4.608;2022-07-09T08:20:41;22.60;99.90
23991;DHT22;12205;50.600;4.608;2022-07-09T08:23:09;22.60;99.90
23991;DHT22;12205;50.600;4.608;2022-07-09T08:25:36;22.60;99.90
23991;DHT22;12205;50.600;4.608;2022-07-09T08:28:04;22.70;99.90
23991;DHT22;12205;50.600;4.608;2022-07-09T08:30:32;22.70;99.90
23991;DHT22;12205;50.600;4.608;2022-07-09T08:32:59;22.80;99.90
23991;DHT22;12205;50.600;4.608;2022-07-09T08:35:27;22.70;99.90
23991;DHT22;12205;50.600;4.608;2022-07-09T08:37:54;22.70;99.90
23991;DHT22;12205;50.600;4.608;2022-07-09T08:40:21;22.70;99.90
23991;DHT22;12205;50.600;4.608;2022-07-09T08:42:50;22.70;99.90
23991;DHT22;12205;50.600;4.608;2022-07-09T08:45:20;22.70;99.90
23991;DHT22;12205;50.600;4.608;2022-07-09T08:47:49;22.70;99.90
23991;DHT22;12205;50.600;4.608;2022-07-09T08:50:18;22.70;99.90
23991;DHT22;12205;50.600;4.608;2022-07-09T08:52:46;22.80;99.90
23991;DHT22;12205;50.600;4.608;2022-07-09T08:55:20;22.90;99.90
23991;DHT22;12205;50.600;4.608;2022-07-09T08:57:47;22.90;99.90
23991;DHT22;12205;50.600;4.608;2022-07-09T09:00:16;22.90;99.90
23991;DHT22;12205;50.600;4.608;2022-07-09T09:02:43;22.80;99.90
23991;DHT22;12205;50.600;4.608;2022-07-09T09:05:13;22.90;99.90
23991;DHT22;12205;50.600;4.608;2022-07-09T09:07:41;22.90;99.90
23991;DHT22;12205;50.600;4.608;2022-07-09T09:10:20;23.00;99.90
23991;DHT22;12205;50.600;4.608;2022-07-09T09:12:49;23.00;99.90
23991;DHT22;12205;50.600;4.608;2022-07-09T09:15:21;23.10;99.90
23991;DHT22;12205;50.600;4.608;2022-07-09T09:17:49;23.10;99.90
23991;DHT22;12205;50.600;4.608;2022-07-09T09:20:18;23.10;99.90
23991;DHT22;12205;50.600;4.608;2022-07-09T09:22:47;23.20;99.90
23991;DHT22;12205;50.600;4.608;2022-07-09T09:25:16;23.40;99.90
23991;DHT22;12205;50.600;4.608;2022-07-09T09:27:51;23.60;99.90
23991;DHT22;12205;50.600;4.608;2022-07-09T09:30:20;23.70;99.90
23991;DHT22;12205;50.600;4.608;2022-07-09T09:32:57;23.90;99.90
23991;DHT22;12205;50.600;4.608;2022-07-09T09:35:28;24.00;99.90
23991;DHT22;12205;50.600;4.608;2022-07-09T09:37:56;24.10;99.90
23991;DHT22;12205;50.600;4.608;2022-07-09T09:40:25;24.20;99.90
23991;DHT22;12205;50.600;4.608;2022-07-09T09:42:53;24.30;99.90
23991;DHT22;12205;50.600;4.608;2022-07-09T09:45:22;24.50;99.90
23991;DHT22;12205;50.600;4.608;2022-07-09T09:48:05;24.70;99.90
23991;DHT22;12205;50.600;4.608;2022-07-09T09:50:34;24.60;99.90
23991;DHT22;12205;50.600;4.608;2022-07-09T09:53:03;24.50;99.90
23991;DHT22;12205;50.600;4.608;2022-07-09T09:55:48;24.40;99.90
23991;DHT22;12205;50.600;4.608;2022-07-09T09:58:21;24.50;99.90
23991;DHT22;12205;50.600;4.608;2022-07-09T10:03:22;24.60;99.90
23991;DHT22;12205;50.600;4.608;2022-07-09T10:05:51;24.80;99.90
23991;DHT22;12205;50.600;4.608;2022-07-09T10:08:19;25.00;99.90
23991;DHT22;12205;50.600;4.608;2022-07-09T10:10:50;24.70;99.90
23991;DHT22;12205;50.600;4.608;2022-07-09T10:13:20;24.80;99.90
23991;DHT22;12205;50.600;4.608;2022-07-09T10:15:48;25.00;99.90
23991;DHT22;12205;50.600;4.608;2022-07-09T10:18:17;25.20;99.90
23991;DHT22;12205;50.600;4.608;2022-07-09T10:20:45;25.30;99.90
23991;DHT22;12205;50.600;4.608;2022-07-09T10:23:21;25.10;99.90
23991;DHT22;12205;50.600;4.608;2022-07-09T10:25:51;24.80;99.90
23991;DHT22;12205;50.600;4.608;2022-07-09T10:28:22;24.90;99.90
23991;DHT22;12205;50.600;4.608;2022-07-09T10:30:51;24.80;99.90
23991;DHT22;12205;50.600;4.608;2022-07-09T10:33:22;24.80;99.90
23991;DHT22;12205;50.600;4.608;2022-07-09T10:35:51;24.90;99.90
23991;DHT22;12205;50.600;4.608;2022-07-09T10:38:21;24.70;99.90
23991;DHT22;12205;50.600;4.608;2022-07-09T10:40:57;24.60;99.90
23991;DHT22;12205;50.600;4.608;2022-07-09T10:43:37;24.60;99.90
23991;DHT22;12205;50.600;4.608;2022-07-09T10:46:09;24.70;99.90
23991;DHT22;12205;50.600;4.608;2022-07-09T10:48:37;24.80;99.90
23991;DHT22;12205;50.600;4.608;2022-07-09T10:51:05;24.90;99.90
23991;DHT22;12205;50.600;4.608;2022-07-09T10:53:34;24.80;99.90
23991;DHT22;12205;50.600;4.608;2022-07-09T10:56:01;24.80;99.90
23991;DHT22;12205;50.600;4.608;2022-07-09T10:58:29;25.00;99.90
23991;DHT22;12205;50.600;4.608;2022-07-09T11:00:57;25.30;99.90
23991;DHT22;12205;50.600;4.608;2022-07-09T11:03:26;25.50;99.90
23991;DHT22;12205;50.600;4.608;2022-07-09T11:05:54;25.70;99.90
23991;DHT22;12205;50.600;4.608;2022-07-09T11:08:22;25.60;99.90
23991;DHT22;12205;50.600;4.608;2022-07-09T11:11:23;25.50;99.90
23991;DHT22;12205;50.600;4.608;2022-07-09T11:13:51;25.50;99.90
23991;DHT22;12205;50.600;4.608;2022-07-09T11:16:36;25.80;99.90
23991;DHT22;12205;50.600;4.608;2022-07-09T11:19:13;25.50;99.90
23991;DHT22;12205;50.600;4.608;2022-07-09T11:21:41;25.30;99.90
23991;DHT22;12205;50.600;4.608;2022-07-09T11:24:13;25.40;99.90
23991;DHT22;12205;50.600;4.608;2022-07-09T11:26:42;25.50;99.90
23991;DHT22;12205;50.600;4.608;2022-07-09T11:29:10;25.50;99.90
23991;DHT22;12205;50.600;4.608;2022-07-09T11:31:46;25.90;99.90
23991;DHT22;12205;50.600;4.608;2022-07-09T11:34:15;25.90;99.90
23991;DHT22;12205;50.600;4.608;2022-07-09T11:36:44;26.10;99.90
23991;DHT22;12205;50.600;4.608;2022-07-09T11:39:24;26.10;99.90
23991;DHT22;12205;50.600;4.608;2022-07-09T11:41:55;26.10;99.90
23991;DHT22;12205;50.600;4.608;2022-07-09T11:44:25;26.20;99.90
23991;DHT22;12205;50.600;4.608;2022-07-09T11:47:07;26.20;99.90
23991;DHT22;12205;50.600;4.608;2022-07-09T11:49:36;26.10;99.90
23991;DHT22;12205;50.600;4.608;2022-07-09T11:52:15;26.10;99.90
23991;DHT22;12205;50.600;4.608;2022-07-09T11:54:57;26.20;99.90
23991;DHT22;12205;50.600;4.608;2022-07-09T11:57:26;26.40;99.90
23991;DHT22;12205;50.600;4.608;2022-07-09T11:59:55;26.60;99.90
23991;DHT22;12205;50.600;4.608;2022-07-09T12:02:26;26.40;99.90
23991;DHT22;12205;50.600;4.608;2022-07-09T12:04:56;26.70;99.90
23991;DHT22;12205;50.600;4.608;2022-07-09T12:07:23;26.80;99.90
23991;DHT22;12205;50.600;4.608;2022-07-09T12:10:02;27.10;99.90
23991;DHT22;12205;50.600;4.608;2022-07-09T12:12:33;27.20;99.90
23991;DHT22;12205;50.600;4.608;2022-07-09T12:15:03;27.40;99.90
23991;DHT22;12205;50.600;4.608;2022-07-09T12:17:32;27.40;99.90
23991;DHT22;12205;50.600;4.608;2022-07-09T12:19:59;27.20;99.90
23991;DHT22;12205;50.600;4.608;2022-07-09T12:22:32;26.60;99.90
23991;DHT22;12205;50.600;4.608;2022-07-09T12:24:59;26.50;99.90
23991;DHT22;12205;50.600;4.608;2022-07-09T12:27:26;26.50;99.90
23991;DHT22;12205;50.600;4.608;2022-07-09T12:29:55;26.90;99.90
23991;DHT22;12205;50.600;4.608;2022-07-09T12:32:23;27.20;99.90
23991;DHT22;12205;50.600;4.608;2022-07-09T12:34:50;27.20;99.90
23991;DHT22;12205;50.600;4.608;2022-07-09T12:37:17;27.00;99.90
23991;DHT22;12205;50.600;4.608;2022-07-09T12:39:45;26.70;99.90
23991;DHT22;12205;50.600;4.608;2022-07-09T12:42:12;26.40;99.90
23991;DHT22;12205;50.600;4.608;2022-07-09T12:44:39;26.40;99.90
23991;DHT22;12205;50.600;4.608;2022-07-09T12:47:08;26.50;99.90
23991;DHT22;12205;50.600;4.608;2022-07-09T12:49:36;26.60;99.90
23991;DHT22;12205;50.600;4.608;2022-07-09T12:52:04;26.70;99.90
23991;DHT22;12205;50.600;4.608;2022-07-09T12:54:31;26.80;99.90
23991;DHT22;12205;50.600;4.608;2022-07-09T12:56:59;26.70;99.90
23991;DHT22;12205;50.600;4.608;2022-07-09T12:59:26;26.20;99.90
23991;DHT22;12205;50.600;4.608;2022-07-09T13:01:53;25.70;99.90
23991;DHT22;12205;50.600;4.608;2022-07-09T13:04:22;25.60;99.90
23991;DHT22;12205;50.600;4.608;2022-07-09T13:06:50;25.60;99.90
23991;DHT22;12205;50.600;4.608;2022-07-09T13:09:17;25.50;99.90
23991;DHT22;12205;50.600;4.608;2022-07-09T13:11:44;26.10;99.90
23991;DHT22;12205;50.600;4.608;2022-07-09T13:14:11;27.20;99.90
23991;DHT22;12205;50.600;4.608;2022-07-09T13:16:39;27.60;99.90
23991;DHT22;12205;50.600;4.608;2022-07-09T13:19:07;27.40;99.90
23991;DHT22;12205;50.600;4.608;2022-07-09T13:21:36;27.30;99.90
23991;DHT22;12205;50.600;4.608;2022-07-09T13:24:18;27.70;99.90
23991;DHT22;12205;50.600;4.608;2022-07-09T13:27:13;28.40;99.90
23991;DHT22;12205;50.600;4.608;2022-07-09T13:29:52;28.50;99.90
23991;DHT22;12205;50.600;4.608;2022-07-09T13:32:39;28.30;99.90
23991;DHT22;12205;50.600;4.608;2022-07-09T13:35:12;29.10;99.90
23991;DHT22;12205;50.600;4.608;2022-07-09T13:37:57;29.90;99.90
23991;DHT22;12205;50.600;4.608;2022-07-09T13:40:24;29.60;99.90
23991;DHT22;12205;50.600;4.608;2022-07-09T13:42:52;29.40;99.90
23991;DHT22;12205;50.600;4.608;2022-07-09T13:45:19;29.70;99.90
23991;DHT22;12205;50.600;4.608;2022-07-09T13:47:46;30.30;99.90
23991;DHT22;12205;50.600;4.608;2022-07-09T13:50:14;29.30;99.90
23991;DHT22;12205;50.600;4.608;2022-07-09T13:52:44;28.30;99.90
23991;DHT22;12205;50.600;4.608;2022-07-09T13:55:13;28.10;99.90
23991;DHT22;12205;50.600;4.608;2022-07-09T13:57:41;28.70;99.90
23991;DHT22;12205;50.600;4.608;2022-07-09T14:00:12;28.50;99.90
23991;DHT22;12205;50.600;4.608;2022-07-09T14:02:40;29.30;99.90
23991;DHT22;12205;50.600;4.608;2022-07-09T14:05:07;29.50;99.90
23991;DHT22;12205;50.600;4.608;2022-07-09T14:07:35;29.20;99.90
23991;DHT22;12205;50.600;4.608;2022-07-09T14:10:02;29.40;99.90
23991;DHT22;12205;50.600;4.608;2022-07-09T14:12:31;28.70;99.90
23991;DHT22;12205;50.600;4.608;2022-07-09T14:14:59;28.90;99.90
23991;DHT22;12205;50.600;4.608;2022-07-09T14:17:28;29.00;99.90
23991;DHT22;12205;50.600;4.608;2022-07-09T14:20:09;29.10;99.90
23991;DHT22;12205;50.600;4.608;2022-07-09T14:22:47;29.20;99.90
23991;DHT22;12205;50.600;4.608;2022-07-09T14:25:15;28.80;99.90
23991;DHT22;12205;50.600;4.608;2022-07-09T14:27:47;29.40;99.90
23991;DHT22;12205;50.600;4.608;2022-07-09T14:30:14;29.80;99.90
23991;DHT22;12205;50.600;4.608;2022-07-09T14:32:42;30.20;99.90
23991;DHT22;12205;50.600;4.608;2022-07-09T14:35:10;30.90;99.90
23991;DHT22;12205;50.600;4.608;2022-07-09T14:37:37;31.10;99.90
23991;DHT22;12205;50.600;4.608;2022-07-09T14:40:06;31.50;99.90
23991;DHT22;12205;50.600;4.608;2022-07-09T14:42:34;31.70;99.00
23991;DHT22;12205;50.600;4.608;2022-07-09T14:45:04;31.00;98.40
23991;DHT22;12205;50.600;4.608;2022-07-09T14:47:32;30.50;99.70
23991;DHT22;12205;50.600;4.608;2022-07-09T14:50:00;30.90;97.80
23991;DHT22;12205;50.600;4.608;2022-07-09T14:52:27;31.40;97.30
23991;DHT22;12205;50.600;4.608;2022-07-09T14:54:54;31.60;95.70
23991;DHT22;12205;50.600;4.608;2022-07-09T14:57:21;32.00;95.10
23991;DHT22;12205;50.600;4.608;2022-07-09T14:59:49;31.90;94.20
23991;DHT22;12205;50.600;4.608;2022-07-09T15:02:18;30.80;95.00
23991;DHT22;12205;50.600;4.608;2022-07-09T15:04:46;30.20;96.80
23991;DHT22;12205;50.600;4.608;2022-07-09T15:07:13;30.50;96.20
23991;DHT22;12205;50.600;4.608;2022-07-09T15:09:48;30.40;95.40
23991;DHT22;12205;50.600;4.608;2022-07-09T15:12:21;30.40;95.00
23991;DHT22;12205;50.600;4.608;2022-07-09T15:14:57;30.90;94.20
23991;DHT22;12205;50.600;4.608;2022-07-09T15:17:29;31.30;93.80
23991;DHT22;12205;50.600;4.608;2022-07-09T15:19:59;31.10;93.00
23991;DHT22;12205;50.600;4.608;2022-07-09T15:22:27;31.40;91.80
23991;DHT22;12205;50.600;4.608;2022-07-09T15:24:56;31.60;92.20
23991;DHT22;12205;50.600;4.608;2022-07-09T15:27:30;31.80;91.20
23991;DHT22;12205;50.600;4.608;2022-07-09T15:30:06;30.50;91.20
23991;DHT22;12205;50.600;4.608;2022-07-09T15:32:36;30.10;92.10
23991;DHT22;12205;50.600;4.608;2022-07-09T15:35:05;29.90;92.40
23991;DHT22;12205;50.600;4.608;2022-07-09T15:37:46;30.30;91.90
23991;DHT22;12205;50.600;4.608;2022-07-09T15:40:53;28.90;92.50
23991;DHT22;12205;50.600;4.608;2022-07-09T15:43:33;29.30;93.10